aviador You're here:

USSS Decoded Metar

SVERDLOVSK in RUSSIA
Report Time2018-06-25 06:00:00
UTC Time2018-06-25 06:17:45
Flight Rules vfr VFR
Wind350° at 12 Gusting to 23 kt
W.Decomp.*RWY 26: 2.9 kt HW 11.6 kt RCW
W.Rank350° ranks 28
Current wind is above 350° avg. (7.6)
Visibility9999 m
Phenomena:N/A
Clouds:N/A
Expected CloudBase > 6,400 ft AGL from Temp-Dew spread
CeilingNone
Temp26°C (ISA +13)
Dew Point10°C (37% RH)
AAT21.8°C
QNH1014 hPa
Density Alt2,343 ft
Elevation764 ft
Report Wrong Elevation
Raw Report
USSS 250600Z 35006G12MPS 290V040 CAVOK 26/10 Q1014 R26L/010060
R26R/010060 NOSIG RMK QFE739/0986=

Extra information for USSS:More info

Metar Taf Metar & Taf Last 4 Metars F.Rules Stats Wind Profile Meteogram Temp Stats Airport Information Weather charts Add Link Nearby VenuesMetar ALERT Operation Metar Decoded Social comments